sensor_id;sensor_type;location;lat;lon;timestamp;P1;durP1;ratioP1;P2;durP2;ratioP2
5791;SDS011;2922;53.482;10.006;2024-03-08T00:00:26;26.67;;;11.70;;
5791;SDS011;2922;53.482;10.006;2024-03-08T00:02:52;34.40;;;13.43;;
5791;SDS011;2922;53.482;10.006;2024-03-08T00:05:18;35.50;;;12.00;;
5791;SDS011;2922;53.482;10.006;2024-03-08T00:07:44;32.50;;;12.07;;
5791;SDS011;2922;53.482;10.006;2024-03-08T00:10:10;28.83;;;12.30;;
5791;SDS011;2922;53.482;10.006;2024-03-08T00:12:37;32.27;;;11.40;;
5791;SDS011;2922;53.482;10.006;2024-03-08T00:15:03;28.17;;;10.67;;
5791;SDS011;2922;53.482;10.006;2024-03-08T00:17:31;29.07;;;11.90;;
5791;SDS011;2922;53.482;10.006;2024-03-08T00:19:56;30.23;;;11.93;;
5791;SDS011;2922;53.482;10.006;2024-03-08T00:22:22;25.40;;;11.37;;
5791;SDS011;2922;53.482;10.006;2024-03-08T00:24:47;28.40;;;11.87;;
5791;SDS011;2922;53.482;10.006;2024-03-08T00:27:15;28.93;;;12.27;;
5791;SDS011;2922;53.482;10.006;2024-03-08T00:29:41;30.27;;;10.70;;
5791;SDS011;2922;53.482;10.006;2024-03-08T00:32:06;28.17;;;12.23;;
5791;SDS011;2922;53.482;10.006;2024-03-08T00:34:36;29.80;;;12.63;;
5791;SDS011;2922;53.482;10.006;2024-03-08T00:37:04;24.93;;;11.30;;
5791;SDS011;2922;53.482;10.006;2024-03-08T00:39:30;26.70;;;11.43;;
5791;SDS011;2922;53.482;10.006;2024-03-08T00:41:55;33.80;;;12.00;;
5791;SDS011;2922;53.482;10.006;2024-03-08T00:44:21;26.03;;;12.73;;
5791;SDS011;2922;53.482;10.006;2024-03-08T00:46:46;28.93;;;11.90;;
5791;SDS011;2922;53.482;10.006;2024-03-08T00:49:12;29.30;;;11.60;;
5791;SDS011;2922;53.482;10.006;2024-03-08T00:51:37;30.30;;;12.27;;
5791;SDS011;2922;53.482;10.006;2024-03-08T00:54:03;28.03;;;11.40;;
5791;SDS011;2922;53.482;10.006;2024-03-08T00:56:29;31.10;;;12.63;;
5791;SDS011;2922;53.482;10.006;2024-03-08T00:58:54;26.13;;;10.47;;
5791;SDS011;2922;53.482;10.006;2024-03-08T01:01:20;27.33;;;10.87;;
5791;SDS011;2922;53.482;10.006;2024-03-08T01:03:46;26.23;;;10.67;;
5791;SDS011;2922;53.482;10.006;2024-03-08T01:06:11;27.00;;;11.00;;
5791;SDS011;2922;53.482;10.006;2024-03-08T01:08:37;27.03;;;11.17;;
5791;SDS011;2922;53.482;10.006;2024-03-08T01:11:03;28.17;;;11.10;;
5791;SDS011;2922;53.482;10.006;2024-03-08T01:13:29;29.93;;;10.50;;
5791;SDS011;2922;53.482;10.006;2024-03-08T01:15:55;26.10;;;10.60;;
5791;SDS011;2922;53.482;10.006;2024-03-08T01:18:21;28.60;;;12.07;;
5791;SDS011;2922;53.482;10.006;2024-03-08T01:20:46;24.30;;;11.40;;
5791;SDS011;2922;53.482;10.006;2024-03-08T01:23:12;29.03;;;11.60;;
5791;SDS011;2922;53.482;10.006;2024-03-08T01:25:38;24.33;;;10.47;;
5791;SDS011;2922;53.482;10.006;2024-03-08T01:28:04;24.87;;;11.30;;
5791;SDS011;2922;53.482;10.006;2024-03-08T01:30:30;25.10;;;10.80;;
5791;SDS011;2922;53.482;10.006;2024-03-08T01:32:57;25.27;;;11.40;;
5791;SDS011;2922;53.482;10.006;2024-03-08T01:35:23;29.93;;;11.77;;
5791;SDS011;2922;53.482;10.006;2024-03-08T01:37:49;24.60;;;11.50;;
5791;SDS011;2922;53.482;10.006;2024-03-08T01:40:14;29.80;;;11.70;;
5791;SDS011;2922;53.482;10.006;2024-03-08T01:42:41;27.80;;;10.63;;
5791;SDS011;2922;53.482;10.006;2024-03-08T01:45:07;24.27;;;10.27;;
5791;SDS011;2922;53.482;10.006;2024-03-08T01:47:33;22.10;;;9.53;;
5791;SDS011;2922;53.482;10.006;2024-03-08T01:50:00;25.93;;;11.20;;
5791;SDS011;2922;53.482;10.006;2024-03-08T01:52:28;24.80;;;10.17;;
5791;SDS011;2922;53.482;10.006;2024-03-08T01:54:56;26.20;;;10.77;;
5791;SDS011;2922;53.482;10.006;2024-03-08T01:57:25;27.93;;;10.37;;
5791;SDS011;2922;53.482;10.006;2024-03-08T01:59:52;31.70;;;10.70;;
5791;SDS011;2922;53.482;10.006;2024-03-08T02:02:20;28.43;;;11.10;;
5791;SDS011;2922;53.482;10.006;2024-03-08T02:04:47;26.20;;;10.90;;
5791;SDS011;2922;53.482;10.006;2024-03-08T02:07:13;29.63;;;11.87;;
5791;SDS011;2922;53.482;10.006;2024-03-08T02:09:38;26.03;;;10.83;;
5791;SDS011;2922;53.482;10.006;2024-03-08T02:12:04;27.30;;;10.87;;
5791;SDS011;2922;53.482;10.006;2024-03-08T02:14:30;28.17;;;11.53;;
5791;SDS011;2922;53.482;10.006;2024-03-08T02:16:59;31.27;;;10.70;;
5791;SDS011;2922;53.482;10.006;2024-03-08T02:19:25;27.37;;;10.83;;
5791;SDS011;2922;53.482;10.006;2024-03-08T02:21:51;25.47;;;11.30;;
5791;SDS011;2922;53.482;10.006;2024-03-08T02:24:16;26.43;;;11.07;;
5791;SDS011;2922;53.482;10.006;2024-03-08T02:26:42;31.97;;;11.10;;
5791;SDS011;2922;53.482;10.006;2024-03-08T02:29:08;30.77;;;11.10;;
5791;SDS011;2922;53.482;10.006;2024-03-08T02:31:34;27.70;;;11.63;;
5791;SDS011;2922;53.482;10.006;2024-03-08T02:34:00;30.37;;;10.57;;
5791;SDS011;2922;53.482;10.006;2024-03-08T02:36:25;28.50;;;11.27;;
5791;SDS011;2922;53.482;10.006;2024-03-08T02:38:51;29.50;;;10.53;;
5791;SDS011;2922;53.482;10.006;2024-03-08T02:41:16;25.13;;;10.10;;
5791;SDS011;2922;53.482;10.006;2024-03-08T02:43:42;36.63;;;12.17;;
5791;SDS011;2922;53.482;10.006;2024-03-08T02:46:09;30.37;;;11.27;;
5791;SDS011;2922;53.482;10.006;2024-03-08T02:48:34;25.67;;;10.70;;
5791;SDS011;2922;53.482;10.006;2024-03-08T02:51:00;26.70;;;10.70;;
5791;SDS011;2922;53.482;10.006;2024-03-08T02:53:27;24.80;;;10.90;;
5791;SDS011;2922;53.482;10.006;2024-03-08T02:55:52;28.33;;;11.37;;
5791;SDS011;2922;53.482;10.006;2024-03-08T02:58:18;28.60;;;11.30;;
5791;SDS011;2922;53.482;10.006;2024-03-08T03:00:43;28.37;;;10.87;;
5791;SDS011;2922;53.482;10.006;2024-03-08T03:03:09;33.93;;;10.57;;
5791;SDS011;2922;53.482;10.006;2024-03-08T03:05:34;29.53;;;11.40;;
5791;SDS011;2922;53.482;10.006;2024-03-08T03:08:00;33.30;;;11.10;;
5791;SDS011;2922;53.482;10.006;2024-03-08T03:10:26;31.63;;;10.87;;
5791;SDS011;2922;53.482;10.006;2024-03-08T03:12:52;28.00;;;11.90;;
5791;SDS011;2922;53.482;10.006;2024-03-08T03:15:17;30.70;;;11.23;;
5791;SDS011;2922;53.482;10.006;2024-03-08T03:17:46;29.30;;;10.97;;
5791;SDS011;2922;53.482;10.006;2024-03-08T03:20:16;27.47;;;10.93;;
5791;SDS011;2922;53.482;10.006;2024-03-08T03:22:47;29.53;;;12.47;;
5791;SDS011;2922;53.482;10.006;2024-03-08T03:25:17;35.63;;;12.20;;
5791;SDS011;2922;53.482;10.006;2024-03-08T03:27:48;32.80;;;13.07;;
5791;SDS011;2922;53.482;10.006;2024-03-08T03:30:14;28.77;;;10.80;;
5791;SDS011;2922;53.482;10.006;2024-03-08T03:32:46;25.83;;;11.07;;
5791;SDS011;2922;53.482;10.006;2024-03-08T03:35:13;34.97;;;12.20;;
5791;SDS011;2922;53.482;10.006;2024-03-08T03:37:40;26.87;;;10.60;;
5791;SDS011;2922;53.482;10.006;2024-03-08T03:40:08;36.33;;;12.00;;
5791;SDS011;2922;53.482;10.006;2024-03-08T03:42:34;35.73;;;12.00;;
5791;SDS011;2922;53.482;10.006;2024-03-08T03:44:59;36.17;;;12.07;;
5791;SDS011;2922;53.482;10.006;2024-03-08T03:47:25;28.97;;;11.57;;
5791;SDS011;2922;53.482;10.006;2024-03-08T03:49:52;30.73;;;12.13;;
5791;SDS011;2922;53.482;10.006;2024-03-08T03:52:19;28.80;;;10.97;;
5791;SDS011;2922;53.482;10.006;2024-03-08T03:54:44;28.43;;;10.57;;
5791;SDS011;2922;53.482;10.006;2024-03-08T03:57:10;30.33;;;11.63;;
5791;SDS011;2922;53.482;10.006;2024-03-08T03:59:37;31.77;;;12.23;;
5791;SDS011;2922;53.482;10.006;2024-03-08T04:02:02;33.97;;;12.37;;
5791;SDS011;2922;53.482;10.006;2024-03-08T04:04:29;31.93;;;11.17;;
5791;SDS011;2922;53.482;10.006;2024-03-08T04:06:54;35.03;;;12.43;;
5791;SDS011;2922;53.482;10.006;2024-03-08T04:09:20;38.47;;;13.37;;
5791;SDS011;2922;53.482;10.006;2024-03-08T04:11:47;36.70;;;12.23;;
5791;SDS011;2922;53.482;10.006;2024-03-08T04:14:13;33.80;;;12.07;;
5791;SDS011;2922;53.482;10.006;2024-03-08T04:16:38;33.40;;;12.40;;
5791;SDS011;2922;53.482;10.006;2024-03-08T04:19:04;32.80;;;11.80;;
5791;SDS011;2922;53.482;10.006;2024-03-08T04:21:30;34.67;;;11.93;;
5791;SDS011;2922;53.482;10.006;2024-03-08T04:23:55;33.07;;;11.50;;
5791;SDS011;2922;53.482;10.006;2024-03-08T04:26:21;38.50;;;12.93;;
5791;SDS011;2922;53.482;10.006;2024-03-08T04:28:47;38.60;;;11.90;;
5791;SDS011;2922;53.482;10.006;2024-03-08T04:31:13;38.27;;;13.60;;
5791;SDS011;2922;53.482;10.006;2024-03-08T04:33:38;29.77;;;11.13;;
5791;SDS011;2922;53.482;10.006;2024-03-08T04:36:04;45.03;;;12.60;;
5791;SDS011;2922;53.482;10.006;2024-03-08T04:38:30;34.50;;;12.00;;
5791;SDS011;2922;53.482;10.006;2024-03-08T04:40:56;34.10;;;11.97;;
5791;SDS011;2922;53.482;10.006;2024-03-08T05:58:28;35.83;;;13.47;;
5791;SDS011;2922;53.482;10.006;2024-03-08T06:00:55;41.70;;;12.50;;
5791;SDS011;2922;53.482;10.006;2024-03-08T06:03:21;36.93;;;13.10;;
5791;SDS011;2922;53.482;10.006;2024-03-08T06:05:47;38.10;;;13.83;;
5791;SDS011;2922;53.482;10.006;2024-03-08T06:08:13;38.00;;;12.97;;
5791;SDS011;2922;53.482;10.006;2024-03-08T06:10:39;33.90;;;12.60;;
5791;SDS011;2922;53.482;10.006;2024-03-08T06:13:05;39.77;;;15.20;;
5791;SDS011;2922;53.482;10.006;2024-03-08T06:15:31;37.27;;;13.80;;
5791;SDS011;2922;53.482;10.006;2024-03-08T06:17:57;42.00;;;12.80;;
5791;SDS011;2922;53.482;10.006;2024-03-08T06:20:22;37.30;;;14.07;;
5791;SDS011;2922;53.482;10.006;2024-03-08T06:22:51;44.53;;;14.57;;
5791;SDS011;2922;53.482;10.006;2024-03-08T06:25:17;38.07;;;14.17;;
5791;SDS011;2922;53.482;10.006;2024-03-08T06:27:43;44.93;;;14.83;;
5791;SDS011;2922;53.482;10.006;2024-03-08T06:30:10;45.10;;;14.30;;
5791;SDS011;2922;53.482;10.006;2024-03-08T06:32:37;43.00;;;13.80;;
5791;SDS011;2922;53.482;10.006;2024-03-08T06:35:05;39.13;;;12.50;;
5791;SDS011;2922;53.482;10.006;2024-03-08T06:37:32;30.97;;;11.90;;
5791;SDS011;2922;53.482;10.006;2024-03-08T06:39:58;35.60;;;12.77;;
5791;SDS011;2922;53.482;10.006;2024-03-08T06:42:23;32.83;;;12.23;;
5791;SDS011;2922;53.482;10.006;2024-03-08T06:44:49;37.40;;;13.53;;
5791;SDS011;2922;53.482;10.006;2024-03-08T06:47:15;39.87;;;13.70;;
5791;SDS011;2922;53.482;10.006;2024-03-08T06:49:44;35.07;;;12.50;;
5791;SDS011;2922;53.482;10.006;2024-03-08T06:52:10;39.20;;;12.40;;
5791;SDS011;2922;53.482;10.006;2024-03-08T06:54:36;40.40;;;13.97;;
5791;SDS011;2922;53.482;10.006;2024-03-08T06:57:05;37.63;;;13.20;;
5791;SDS011;2922;53.482;10.006;2024-03-08T06:59:31;43.77;;;13.33;;
5791;SDS011;2922;53.482;10.006;2024-03-08T07:01:57;36.53;;;13.60;;
5791;SDS011;2922;53.482;10.006;2024-03-08T07:04:24;43.33;;;13.90;;
5791;SDS011;2922;53.482;10.006;2024-03-08T07:06:53;33.37;;;12.90;;
5791;SDS011;2922;53.482;10.006;2024-03-08T07:09:19;36.07;;;13.83;;
5791;SDS011;2922;53.482;10.006;2024-03-08T07:11:44;34.70;;;12.80;;
5791;SDS011;2922;53.482;10.006;2024-03-08T07:14:11;41.07;;;14.63;;
5791;SDS011;2922;53.482;10.006;2024-03-08T07:16:37;59.17;;;17.37;;
5791;SDS011;2922;53.482;10.006;2024-03-08T07:19:04;35.60;;;13.90;;
5791;SDS011;2922;53.482;10.006;2024-03-08T07:21:30;43.27;;;14.87;;
5791;SDS011;2922;53.482;10.006;2024-03-08T07:23:56;39.23;;;13.23;;
5791;SDS011;2922;53.482;10.006;2024-03-08T07:26:24;41.73;;;14.47;;
5791;SDS011;2922;53.482;10.006;2024-03-08T07:28:50;42.87;;;14.60;;
5791;SDS011;2922;53.482;10.006;2024-03-08T07:31:15;42.03;;;13.90;;
5791;SDS011;2922;53.482;10.006;2024-03-08T07:33:48;42.33;;;14.77;;
5791;SDS011;2922;53.482;10.006;2024-03-08T07:36:15;44.03;;;15.10;;
5791;SDS011;2922;53.482;10.006;2024-03-08T07:38:40;38.37;;;13.70;;
5791;SDS011;2922;53.482;10.006;2024-03-08T07:41:06;42.30;;;13.50;;
5791;SDS011;2922;53.482;10.006;2024-03-08T07:43:31;43.20;;;15.73;;
5791;SDS011;2922;53.482;10.006;2024-03-08T07:46:00;44.97;;;16.43;;
5791;SDS011;2922;53.482;10.006;2024-03-08T07:48:25;43.67;;;15.67;;
5791;SDS011;2922;53.482;10.006;2024-03-08T07:50:52;38.43;;;14.93;;
5791;SDS011;2922;53.482;10.006;2024-03-08T07:53:17;47.53;;;14.53;;
5791;SDS011;2922;53.482;10.006;2024-03-08T07:55:43;45.90;;;15.13;;
5791;SDS011;2922;53.482;10.006;2024-03-08T07:58:09;28.63;;;11.97;;
5791;SDS011;2922;53.482;10.006;2024-03-08T08:00:36;38.43;;;15.10;;
5791;SDS011;2922;53.482;10.006;2024-03-08T08:03:01;49.30;;;18.60;;
5791;SDS011;2922;53.482;10.006;2024-03-08T08:05:28;49.33;;;17.27;;
5791;SDS011;2922;53.482;10.006;2024-03-08T08:07:53;42.37;;;15.07;;
5791;SDS011;2922;53.482;10.006;2024-03-08T08:10:19;42.17;;;14.93;;
5791;SDS011;2922;53.482;10.006;2024-03-08T08:12:50;37.40;;;14.43;;
5791;SDS011;2922;53.482;10.006;2024-03-08T08:15:19;41.00;;;15.90;;
5791;SDS011;2922;53.482;10.006;2024-03-08T08:17:44;41.60;;;17.20;;
5791;SDS011;2922;53.482;10.006;2024-03-08T08:20:11;42.30;;;16.57;;
5791;SDS011;2922;53.482;10.006;2024-03-08T08:22:41;36.87;;;13.70;;
5791;SDS011;2922;53.482;10.006;2024-03-08T08:25:08;40.27;;;15.30;;
5791;SDS011;2922;53.482;10.006;2024-03-08T08:27:34;38.50;;;14.80;;
5791;SDS011;2922;53.482;10.006;2024-03-08T08:30:04;33.90;;;13.97;;
5791;SDS011;2922;53.482;10.006;2024-03-08T08:32:33;33.20;;;14.47;;
5791;SDS011;2922;53.482;10.006;2024-03-08T08:35:01;36.73;;;14.33;;
5791;SDS011;2922;53.482;10.006;2024-03-08T08:37:29;36.57;;;14.40;;
5791;SDS011;2922;53.482;10.006;2024-03-08T08:39:56;33.97;;;13.60;;
5791;SDS011;2922;53.482;10.006;2024-03-08T08:42:22;41.73;;;15.03;;
5791;SDS011;2922;53.482;10.006;2024-03-08T08:44:48;33.53;;;13.70;;
5791;SDS011;2922;53.482;10.006;2024-03-08T08:47:15;34.77;;;14.10;;
5791;SDS011;2922;53.482;10.006;2024-03-08T08:49:43;36.17;;;12.90;;
5791;SDS011;2922;53.482;10.006;2024-03-08T08:52:11;35.00;;;14.20;;
5791;SDS011;2922;53.482;10.006;2024-03-08T08:54:36;33.30;;;13.37;;
5791;SDS011;2922;53.482;10.006;2024-03-08T08:57:02;31.13;;;12.60;;
5791;SDS011;2922;53.482;10.006;2024-03-08T08:59:32;31.83;;;12.90;;
5791;SDS011;2922;53.482;10.006;2024-03-08T09:02:01;30.70;;;13.33;;
5791;SDS011;2922;53.482;10.006;2024-03-08T09:04:28;31.33;;;13.77;;
5791;SDS011;2922;53.482;10.006;2024-03-08T09:06:54;29.23;;;13.53;;
5791;SDS011;2922;53.482;10.006;2024-03-08T09:09:21;29.53;;;12.83;;
5791;SDS011;2922;53.482;10.006;2024-03-08T09:11:47;36.27;;;13.80;;
5791;SDS011;2922;53.482;10.006;2024-03-08T09:14:14;32.47;;;14.37;;
5791;SDS011;2922;53.482;10.006;2024-03-08T09:16:39;35.40;;;14.70;;
5791;SDS011;2922;53.482;10.006;2024-03-08T09:19:05;30.57;;;13.03;;
5791;SDS011;2922;53.482;10.006;2024-03-08T09:21:31;33.50;;;14.93;;
5791;SDS011;2922;53.482;10.006;2024-03-08T09:23:57;34.10;;;12.97;;
5791;SDS011;2922;53.482;10.006;2024-03-08T09:26:23;31.97;;;13.70;;
5791;SDS011;2922;53.482;10.006;2024-03-08T09:28:49;32.40;;;13.10;;
5791;SDS011;2922;53.482;10.006;2024-03-08T09:31:14;31.60;;;14.10;;
5791;SDS011;2922;53.482;10.006;2024-03-08T09:33:41;31.07;;;14.10;;
5791;SDS011;2922;53.482;10.006;2024-03-08T09:36:07;38.03;;;15.00;;
5791;SDS011;2922;53.482;10.006;2024-03-08T09:38:33;32.53;;;13.50;;
5791;SDS011;2922;53.482;10.006;2024-03-08T09:41:01;34.80;;;14.53;;
5791;SDS011;2922;53.482;10.006;2024-03-08T09:43:29;28.70;;;13.43;;
5791;SDS011;2922;53.482;10.006;2024-03-08T09:45:55;29.70;;;12.77;;
5791;SDS011;2922;53.482;10.006;2024-03-08T09:48:22;31.37;;;15.17;;
5791;SDS011;2922;53.482;10.006;2024-03-08T09:50:48;30.07;;;13.20;;
5791;SDS011;2922;53.482;10.006;2024-03-08T09:53:14;27.73;;;13.30;;
5791;SDS011;2922;53.482;10.006;2024-03-08T09:55:40;31.43;;;12.87;;
5791;SDS011;2922;53.482;10.006;2024-03-08T09:58:07;30.80;;;13.23;;
5791;SDS011;2922;53.482;10.006;2024-03-08T10:00:53;37.13;;;14.47;;
5791;SDS011;2922;53.482;10.006;2024-03-08T10:03:19;31.67;;;13.37;;
5791;SDS011;2922;53.482;10.006;2024-03-08T10:05:45;33.03;;;14.80;;
5791;SDS011;2922;53.482;10.006;2024-03-08T10:08:11;30.33;;;13.43;;
5791;SDS011;2922;53.482;10.006;2024-03-08T10:10:38;30.23;;;13.33;;
5791;SDS011;2922;53.482;10.006;2024-03-08T10:13:07;29.93;;;13.23;;
5791;SDS011;2922;53.482;10.006;2024-03-08T10:15:34;28.70;;;12.90;;
5791;SDS011;2922;53.482;10.006;2024-03-08T10:18:00;31.87;;;14.27;;
5791;SDS011;2922;53.482;10.006;2024-03-08T10:20:27;29.00;;;14.83;;
5791;SDS011;2922;53.482;10.006;2024-03-08T10:22:58;31.13;;;15.07;;
5791;SDS011;2922;53.482;10.006;2024-03-08T10:25:28;32.67;;;14.07;;
5791;SDS011;2922;53.482;10.006;2024-03-08T10:27:57;27.77;;;13.93;;
5791;SDS011;2922;53.482;10.006;2024-03-08T10:30:22;31.27;;;14.10;;
5791;SDS011;2922;53.482;10.006;2024-03-08T10:32:48;37.43;;;16.43;;
5791;SDS011;2922;53.482;10.006;2024-03-08T10:35:14;34.90;;;15.00;;
5791;SDS011;2922;53.482;10.006;2024-03-08T10:37:45;29.10;;;13.43;;
5791;SDS011;2922;53.482;10.006;2024-03-08T10:40:16;30.60;;;13.53;;
5791;SDS011;2922;53.482;10.006;2024-03-08T10:42:50;29.93;;;12.47;;
5791;SDS011;2922;53.482;10.006;2024-03-08T10:48:07;27.37;;;12.57;;
5791;SDS011;2922;53.482;10.006;2024-03-08T10:50:43;25.80;;;13.30;;
5791;SDS011;2922;53.482;10.006;2024-03-08T10:53:11;27.03;;;12.37;;
5791;SDS011;2922;53.482;10.006;2024-03-08T10:55:39;28.00;;;13.30;;
5791;SDS011;2922;53.482;10.006;2024-03-08T10:58:06;24.73;;;11.43;;
5791;SDS011;2922;53.482;10.006;2024-03-08T11:00:32;23.03;;;11.40;;
5791;SDS011;2922;53.482;10.006;2024-03-08T11:02:59;22.87;;;11.37;;
5791;SDS011;2922;53.482;10.006;2024-03-08T11:05:31;24.97;;;13.07;;
5791;SDS011;2922;53.482;10.006;2024-03-08T11:08:14;24.90;;;12.53;;
5791;SDS011;2922;53.482;10.006;2024-03-08T11:10:51;24.97;;;11.80;;
5791;SDS011;2922;53.482;10.006;2024-03-08T11:13:36;26.03;;;11.37;;
5791;SDS011;2922;53.482;10.006;2024-03-08T11:18:52;23.07;;;10.90;;
5791;SDS011;2922;53.482;10.006;2024-03-08T11:21:19;20.73;;;10.07;;
5791;SDS011;2922;53.482;10.006;2024-03-08T11:23:58;23.07;;;10.57;;
5791;SDS011;2922;53.482;10.006;2024-03-08T11:26:39;21.93;;;10.87;;
5791;SDS011;2922;53.482;10.006;2024-03-08T11:31:52;21.73;;;10.53;;
5791;SDS011;2922;53.482;10.006;2024-03-08T11:34:28;24.90;;;12.37;;
5791;SDS011;2922;53.482;10.006;2024-03-08T11:36:55;23.30;;;10.70;;
5791;SDS011;2922;53.482;10.006;2024-03-08T11:39:21;22.67;;;11.00;;
5791;SDS011;2922;53.482;10.006;2024-03-08T11:41:49;24.27;;;11.20;;
5791;SDS011;2922;53.482;10.006;2024-03-08T11:44:14;23.80;;;11.07;;
5791;SDS011;2922;53.482;10.006;2024-03-08T11:46:41;25.00;;;12.80;;
5791;SDS011;2922;53.482;10.006;2024-03-08T11:49:12;21.80;;;10.93;;
5791;SDS011;2922;53.482;10.006;2024-03-08T11:51:37;27.43;;;12.47;;
5791;SDS011;2922;53.482;10.006;2024-03-08T11:54:03;24.87;;;11.13;;
5791;SDS011;2922;53.482;10.006;2024-03-08T11:56:31;26.83;;;12.30;;
5791;SDS011;2922;53.482;10.006;2024-03-08T11:58:57;22.10;;;10.93;;
5791;SDS011;2922;53.482;10.006;2024-03-08T12:01:23;23.83;;;12.30;;
5791;SDS011;2922;53.482;10.006;2024-03-08T12:03:55;24.07;;;11.80;;
5791;SDS011;2922;53.482;10.006;2024-03-08T12:06:24;24.40;;;11.10;;
5791;SDS011;2922;53.482;10.006;2024-03-08T12:08:50;26.97;;;11.60;;
5791;SDS011;2922;53.482;10.006;2024-03-08T12:11:19;26.20;;;12.90;;
5791;SDS011;2922;53.482;10.006;2024-03-08T12:13:48;24.43;;;11.30;;
5791;SDS011;2922;53.482;10.006;2024-03-08T12:16:16;23.87;;;11.73;;
5791;SDS011;2922;53.482;10.006;2024-03-08T12:18:48;22.53;;;10.80;;
5791;SDS011;2922;53.482;10.006;2024-03-08T12:21:16;19.67;;;10.37;;
5791;SDS011;2922;53.482;10.006;2024-03-08T12:23:45;22.33;;;11.17;;
5791;SDS011;2922;53.482;10.006;2024-03-08T12:26:15;22.87;;;11.07;;
5791;SDS011;2922;53.482;10.006;2024-03-08T12:28:42;23.20;;;10.97;;
5791;SDS011;2922;53.482;10.006;2024-03-08T12:31:12;20.30;;;11.03;;
5791;SDS011;2922;53.482;10.006;2024-03-08T12:33:51;21.27;;;9.80;;
5791;SDS011;2922;53.482;10.006;2024-03-08T12:36:19;22.23;;;10.93;;
5791;SDS011;2922;53.482;10.006;2024-03-08T12:38:49;22.17;;;11.23;;
5791;SDS011;2922;53.482;10.006;2024-03-08T12:41:17;19.90;;;10.90;;
5791;SDS011;2922;53.482;10.006;2024-03-08T12:43:44;19.50;;;10.50;;
5791;SDS011;2922;53.482;10.006;2024-03-08T12:46:19;23.00;;;10.13;;
5791;SDS011;2922;53.482;10.006;2024-03-08T12:48:46;26.20;;;12.40;;
5791;SDS011;2922;53.482;10.006;2024-03-08T12:51:12;20.20;;;11.13;;
5791;SDS011;2922;53.482;10.006;2024-03-08T12:53:43;21.07;;;11.07;;
5791;SDS011;2922;53.482;10.006;2024-03-08T12:56:12;22.80;;;10.67;;
5791;SDS011;2922;53.482;10.006;2024-03-08T12:58:38;23.13;;;11.40;;
5791;SDS011;2922;53.482;10.006;2024-03-08T13:01:04;18.80;;;9.80;;
5791;SDS011;2922;53.482;10.006;2024-03-08T13:03:30;23.30;;;10.90;;
5791;SDS011;2922;53.482;10.006;2024-03-08T13:05:56;22.23;;;10.20;;
5791;SDS011;2922;53.482;10.006;2024-03-08T13:08:22;19.77;;;10.07;;
5791;SDS011;2922;53.482;10.006;2024-03-08T13:10:49;21.60;;;10.57;;
5791;SDS011;2922;53.482;10.006;2024-03-08T13:13:16;21.90;;;9.63;;
5791;SDS011;2922;53.482;10.006;2024-03-08T13:15:42;21.20;;;10.77;;
5791;SDS011;2922;53.482;10.006;2024-03-08T13:18:08;23.03;;;10.67;;
5791;SDS011;2922;53.482;10.006;2024-03-08T13:20:35;22.10;;;10.50;;
5791;SDS011;2922;53.482;10.006;2024-03-08T13:23:03;18.43;;;9.17;;
5791;SDS011;2922;53.482;10.006;2024-03-08T13:25:30;21.80;;;10.67;;
5791;SDS011;2922;53.482;10.006;2024-03-08T13:27:56;35.63;;;9.10;;
5791;SDS011;2922;53.482;10.006;2024-03-08T13:30:24;19.33;;;9.17;;
5791;SDS011;2922;53.482;10.006;2024-03-08T13:32:51;20.30;;;9.40;;
5791;SDS011;2922;53.482;10.006;2024-03-08T13:35:18;20.23;;;10.80;;
5791;SDS011;2922;53.482;10.006;2024-03-08T13:37:49;19.53;;;8.60;;
5791;SDS011;2922;53.482;10.006;2024-03-08T13:40:15;17.30;;;9.03;;
5791;SDS011;2922;53.482;10.006;2024-03-08T13:42:43;16.93;;;8.80;;
5791;SDS011;2922;53.482;10.006;2024-03-08T13:45:09;20.00;;;9.47;;
5791;SDS011;2922;53.482;10.006;2024-03-08T13:47:40;21.40;;;8.27;;
5791;SDS011;2922;53.482;10.006;2024-03-08T13:50:09;17.70;;;8.57;;
5791;SDS011;2922;53.482;10.006;2024-03-08T13:52:43;17.60;;;8.87;;
5791;SDS011;2922;53.482;10.006;2024-03-08T13:55:09;18.20;;;9.50;;
5791;SDS011;2922;53.482;10.006;2024-03-08T13:57:35;21.03;;;10.37;;
5791;SDS011;2922;53.482;10.006;2024-03-08T14:00:01;15.10;;;8.53;;
5791;SDS011;2922;53.482;10.006;2024-03-08T14:02:27;19.30;;;10.03;;
5791;SDS011;2922;53.482;10.006;2024-03-08T14:04:54;18.80;;;9.50;;
5791;SDS011;2922;53.482;10.006;2024-03-08T14:07:20;19.57;;;8.97;;
5791;SDS011;2922;53.482;10.006;2024-03-08T14:09:46;19.07;;;9.17;;
5791;SDS011;2922;53.482;10.006;2024-03-08T14:12:11;19.07;;;9.93;;
5791;SDS011;2922;53.482;10.006;2024-03-08T14:14:38;17.77;;;9.37;;
5791;SDS011;2922;53.482;10.006;2024-03-08T14:17:05;19.90;;;9.70;;
5791;SDS011;2922;53.482;10.006;2024-03-08T14:19:32;17.77;;;8.40;;
5791;SDS011;2922;53.482;10.006;2024-03-08T14:21:59;20.00;;;8.50;;
5791;SDS011;2922;53.482;10.006;2024-03-08T14:24:24;19.20;;;9.87;;
5791;SDS011;2922;53.482;10.006;2024-03-08T14:26:50;19.17;;;9.37;;
5791;SDS011;2922;53.482;10.006;2024-03-08T14:29:16;16.97;;;9.70;;
5791;SDS011;2922;53.482;10.006;2024-03-08T14:31:43;19.30;;;8.87;;
5791;SDS011;2922;53.482;10.006;2024-03-08T14:34:10;19.60;;;10.30;;
5791;SDS011;2922;53.482;10.006;2024-03-08T14:36:35;16.90;;;9.47;;
5791;SDS011;2922;53.482;10.006;2024-03-08T14:39:01;20.13;;;9.50;;
5791;SDS011;2922;53.482;10.006;2024-03-08T14:41:27;17.03;;;8.40;;
5791;SDS011;2922;53.482;10.006;2024-03-08T14:43:52;19.60;;;9.77;;
5791;SDS011;2922;53.482;10.006;2024-03-08T14:46:18;21.20;;;9.20;;
5791;SDS011;2922;53.482;10.006;2024-03-08T14:48:52;16.33;;;9.07;;
5791;SDS011;2922;53.482;10.006;2024-03-08T14:51:18;18.13;;;8.90;;
5791;SDS011;2922;53.482;10.006;2024-03-08T14:53:46;18.73;;;8.63;;
5791;SDS011;2922;53.482;10.006;2024-03-08T14:56:12;19.70;;;9.70;;
5791;SDS011;2922;53.482;10.006;2024-03-08T14:58:41;17.63;;;9.30;;
5791;SDS011;2922;53.482;10.006;2024-03-08T15:01:08;16.20;;;9.30;;
5791;SDS011;2922;53.482;10.006;2024-03-08T15:03:35;22.53;;;8.73;;
5791;SDS011;2922;53.482;10.006;2024-03-08T15:06:02;18.80;;;9.60;;
5791;SDS011;2922;53.482;10.006;2024-03-08T15:08:33;22.07;;;10.13;;
5791;SDS011;2922;53.482;10.006;2024-03-08T15:11:00;19.07;;;8.90;;
5791;SDS011;2922;53.482;10.006;2024-03-08T15:13:26;17.97;;;9.83;;
5791;SDS011;2922;53.482;10.006;2024-03-08T15:16:05;18.77;;;9.33;;
5791;SDS011;2922;53.482;10.006;2024-03-08T15:18:32;21.57;;;12.07;;
5791;SDS011;2922;53.482;10.006;2024-03-08T15:21:04;23.53;;;12.80;;
5791;SDS011;2922;53.482;10.006;2024-03-08T15:23:34;29.50;;;16.07;;
5791;SDS011;2922;53.482;10.006;2024-03-08T15:26:02;19.67;;;9.70;;
5791;SDS011;2922;53.482;10.006;2024-03-08T15:28:32;20.10;;;10.03;;
5791;SDS011;2922;53.482;10.006;2024-03-08T15:31:05;24.33;;;11.40;;
5791;SDS011;2922;53.482;10.006;2024-03-08T15:33:35;18.93;;;10.50;;
5791;SDS011;2922;53.482;10.006;2024-03-08T15:36:11;21.43;;;11.07;;
5791;SDS011;2922;53.482;10.006;2024-03-08T15:38:39;22.83;;;10.30;;
5791;SDS011;2922;53.482;10.006;2024-03-08T15:41:05;18.37;;;9.50;;
5791;SDS011;2922;53.482;10.006;2024-03-08T15:43:37;17.50;;;8.90;;
5791;SDS011;2922;53.482;10.006;2024-03-08T15:46:04;21.43;;;9.47;;
5791;SDS011;2922;53.482;10.006;2024-03-08T15:48:31;20.37;;;9.30;;
5791;SDS011;2922;53.482;10.006;2024-03-08T15:50:57;19.07;;;10.00;;
5791;SDS011;2922;53.482;10.006;2024-03-08T15:53:27;21.30;;;10.13;;
5791;SDS011;2922;53.482;10.006;2024-03-08T15:55:53;23.03;;;11.30;;
5791;SDS011;2922;53.482;10.006;2024-03-08T15:58:19;19.47;;;9.67;;